Time;durP1;ratioP1;P1;durP2;ratioP2;P2;SDS_P1;SDS_P2;PMS_P1;PMS_P2;Temp;Humidity;BMP_temperature;BMP_pressure;BME280_temperature;BME280_humidity;BME280_pressure;Samples;Min_cycle;Max_cycle;Signal;HPM_P1;HPM_P2
2022/10/31 00:01:26;;;;;;;;;;;;;;;-142.75;100.00;77452.25;5057275;28;20008;-65
2022/10/31 00:03:52;;;;;;;;;;;;;;;-142.75;100.00;77446.34;5048840;28;19971;-65
2022/10/31 00:06:20;;;;;;;;;;;;;;;-142.75;100.00;77448.34;5031882;28;19924;-66
2022/10/31 00:08:46;;;;;;;;;;;;;;;-142.75;100.00;77440.44;5067771;28;20374;-65
2022/10/31 00:11:11;;;;;;;;;;;;;;;-142.75;100.00;77432.56;5067189;28;19969;-66
2022/10/31 00:13:36;;;;;;;;;;;;;;;-142.75;100.00;77440.44;5069586;28;19920;-66
2022/10/31 00:16:01;;;;;;;;;;;;;;;-142.75;100.00;77438.47;5070092;28;19927;-66
2022/10/31 00:18:27;;;;;;;;;;;;;;;-142.75;100.00;77432.56;5069172;28;20343;-66
2022/10/31 00:21:02;;;;;;;;;;;;;;;-142.75;100.00;77436.50;5069620;28;20031;-66
2022/10/31 00:23:27;;;;;;;;;;;;;;;-142.75;100.00;77436.50;5069398;28;19946;-66
2022/10/31 00:25:53;;;;;;;;;;;;;;;-142.75;100.00;77432.56;5051515;28;19916;-66
2022/10/31 00:28:18;;;;;;;;;;;;;;;-142.75;100.00;77426.66;5069055;28;19916;-66
2022/10/31 00:30:43;;;;;;;;;;;;;;;-142.75;100.00;77426.66;5069810;28;19916;-67
2022/10/31 00:33:08;;;;;;;;;;;;;;;-142.75;100.00;77428.63;5056328;28;19921;-66
2022/10/31 00:35:33;;;;;;;;;;;;;;;-142.75;100.00;77438.47;5049366;28;20071;-66
2022/10/31 00:37:59;;;;;;;;;;;;;;;-142.75;100.00;77438.47;5049220;28;19921;-65
2022/10/31 00:40:24;;;;;;;;;;;;;;;-142.75;100.00;77460.13;5049431;28;20339;-66
2022/10/31 00:42:49;;;;;;;;;;;;;;;-142.75;100.00;77458.16;5049496;28;20008;-66
2022/10/31 00:45:15;;;;;;;;;;;;;;;-142.75;100.00;77477.88;5049349;28;20333;-67
2022/10/31 00:47:40;;;;;;;;;;;;;;;-142.75;100.00;77475.91;5049336;28;19956;-66
2022/10/31 00:50:05;;;;;;;;;;;;;;;-142.75;100.00;77487.72;5060844;28;19940;-67
2022/10/31 00:52:31;;;;;;;;;;;;;;;-142.75;100.00;77495.59;5069315;28;19916;-67
2022/10/31 00:54:56;;;;;;;;;;;;;;;-142.75;100.00;77513.31;5069090;28;19921;-66
2022/10/31 00:57:21;;;;;;;;;;;;;;;-142.75;100.00;77515.28;5068919;28;19935;-67
2022/10/31 00:59:46;;;;;;;;;;;;;;;-142.75;100.00;77511.34;5069232;28;19916;-66
2022/10/31 01:02:11;;;;;;;;;;;;;;;-142.75;100.00;77495.59;5069225;28;19923;-67
2022/10/31 01:04:36;;;;;;;;;;;;;;;-142.75;100.00;77487.72;5069114;28;19921;-66
2022/10/31 01:07:02;;;;;;;;;;;;;;;-142.75;100.00;77489.69;5050770;28;20014;-67
2022/10/31 01:09:27;;;;;;;;;;;;;;;-142.75;100.00;77483.78;5063343;28;19965;-66
2022/10/31 01:11:52;;;;;;;;;;;;;;;-142.75;100.00;77495.59;5049225;28;19916;-66
2022/10/31 01:14:17;;;;;;;;;;;;;;;-142.75;100.00;77511.34;5049086;28;19916;-66
2022/10/31 01:16:43;;;;;;;;;;;;;;;-142.75;100.00;77497.56;5052040;28;19924;-65
2022/10/31 01:19:08;;;;;;;;;;;;;;;-142.75;100.00;77493.63;5052638;28;19975;-66
2022/10/31 01:21:33;;;;;;;;;;;;;;;-142.75;100.00;77491.66;5034707;28;19920;-66
2022/10/31 01:23:59;;;;;;;;;;;;;;;-142.75;100.00;77487.72;5052648;28;19923;-66
2022/10/31 01:26:29;;;;;;;;;;;;;;;-142.75;100.00;77499.53;5052372;28;20006;-66
2022/10/31 01:28:56;;;;;;;;;;;;;;;-142.75;100.00;77499.53;5071782;28;20408;-66
2022/10/31 01:31:22;;;;;;;;;;;;;;;-142.75;100.00;77495.59;5072392;28;20419;-66
2022/10/31 01:33:48;;;;;;;;;;;;;;;-142.75;100.00;77495.59;5072244;28;19916;-66
2022/10/31 01:36:17;;;;;;;;;;;;;;;-142.75;100.00;77491.66;5072197;28;19920;-66
2022/10/31 01:38:43;;;;;;;;;;;;;;;-142.75;100.00;77503.47;5072025;28;19917;-66
2022/10/31 01:41:09;;;;;;;;;;;;;;;-142.75;100.00;77495.59;5072243;28;19924;-66
2022/10/31 01:43:41;;;;;;;;;;;;;;;-142.75;100.00;77487.72;5054091;28;20292;-66
2022/10/31 01:46:06;;;;;;;;;;;;;;;-142.75;100.00;77489.69;5072800;28;20382;-66
2022/10/31 01:48:32;;;;;;;;;;;;;;;-142.75;100.00;77491.66;5071486;28;19922;-66
2022/10/31 01:50:57;;;;;;;;;;;;;;;-142.75;100.00;77503.47;5061812;28;19923;-66
2022/10/31 01:53:23;;;;;;;;;;;;;;;-142.75;100.00;77505.44;5052011;28;19920;-66
2022/10/31 01:55:48;;;;;;;;;;;;;;;-142.75;100.00;77507.41;5051944;28;20038;-67
2022/10/31 01:58:16;;;;;;;;;;;;;;;-142.75;100.00;77523.16;5051554;28;19956;-66
2022/10/31 02:00:43;;;;;;;;;;;;;;;-142.75;100.00;77542.84;5052146;28;20393;-66
2022/10/31 02:03:08;;;;;;;;;;;;;;;-142.75;100.00;77554.66;5051672;28;20040;-66
2022/10/31 02:05:33;;;;;;;;;;;;;;;-142.75;100.00;77550.72;5057811;28;19999;-67
2022/10/31 02:08:04;;;;;;;;;;;;;;;-142.75;100.00;77542.84;5071437;28;19916;-66
2022/10/31 02:10:31;;;;;;;;;;;;;;;-142.75;100.00;77536.94;5071696;28;20378;-66
2022/10/31 02:12:57;;;;;;;;;;;;;;;-142.75;100.00;77542.84;5071600;28;19916;-66
2022/10/31 02:15:22;;;;;;;;;;;;;;;-142.75;100.00;77552.69;5071281;28;19941;-67
2022/10/31 02:17:48;;;;;;;;;;;;;;;-142.75;100.00;77544.81;5071691;28;20321;-66
2022/10/31 02:20:18;;;;;;;;;;;;;;;-142.75;100.00;77544.81;5053524;28;19916;-66
2022/10/31 02:23:02;;;;;;;;;;;;;;;-142.75;100.00;77546.78;5071416;28;19916;-65
2022/10/31 02:25:30;;;;;;;;;;;;;;;-142.75;100.00;77552.69;5071279;28;19916;-66
2022/10/31 02:28:15;;;;;;;;;;;;;;;-142.75;100.00;77554.66;5070004;28;20386;-66
2022/10/31 02:31:00;;;;;;;;;;;;;;;-142.75;100.00;77562.53;5030122;28;20001;-66
2022/10/31 02:33:28;;;;;;;;;;;;;;;-142.75;100.00;77562.53;5053234;28;19916;-66
2022/10/31 02:36:10;;;;;;;;;;;;;;;-142.75;100.00;77560.56;5071094;28;19920;-66
2022/10/31 02:38:50;;;;;;;;;;;;;;;-142.75;100.00;77566.47;5070695;28;19923;-66
2022/10/31 02:41:26;;;;;;;;;;;;;;;-142.75;100.00;77566.47;5071053;28;19924;-66
2022/10/31 02:44:12;;;;;;;;;;;;;;;-142.75;100.00;77558.59;5070976;28;20414;-66
2022/10/31 02:46:53;;;;;;;;;;;;;;;-142.75;100.00;77564.50;5052780;28;19989;-66
2022/10/31 02:49:18;;;;;;;;;;;;;;;-142.75;100.00;77562.53;5070827;28;19921;-66
2022/10/31 02:51:44;;;;;;;;;;;;;;;-142.75;100.00;77556.63;5070890;28;19928;-65
2022/10/31 02:54:20;;;;;;;;;;;;;;;-142.75;100.00;77564.50;5052778;28;20367;-66
2022/10/31 02:56:46;;;;;;;;;;;;;;;-142.75;100.00;77574.34;5070632;28;19962;-67
2022/10/31 02:59:11;;;;;;;;;;;;;;;-142.75;100.00;77570.41;5071300;28;19968;-67
2022/10/31 03:01:40;;;;;;;;;;;;;;;-142.75;100.00;77566.47;5070767;28;19921;-66
2022/10/31 03:04:16;;;;;;;;;;;;;;;-142.75;100.00;77570.41;5052666;28;19917;-66
2022/10/31 03:06:44;;;;;;;;;;;;;;;-142.75;100.00;77570.41;5070217;28;19916;-66
2022/10/31 03:09:17;;;;;;;;;;;;;;;-142.75;100.00;77574.34;5070506;28;19916;-66
2022/10/31 03:11:53;;;;;;;;;;;;;;;-142.75;100.00;77572.38;5068311;28;19917;-66
2022/10/31 03:14:24;;;;;;;;;;;;;;;-142.75;100.00;77572.38;5050440;28;20325;-66
2022/10/31 03:16:51;;;;;;;;;;;;;;;-142.75;100.00;77574.34;5069750;28;19916;-66
2022/10/31 03:19:23;;;;;;;;;;;;;;;-142.75;100.00;77584.19;5070197;28;19916;-66
2022/10/31 03:21:52;;;;;;;;;;;;;;;-142.75;100.00;77576.31;5070304;28;20377;-66
2022/10/31 03:24:19;;;;;;;;;;;;;;;-142.75;100.00;77580.25;5052143;28;19920;-66
2022/10/31 03:26:47;;;;;;;;;;;;;;;-142.75;100.00;77601.91;5069852;28;20404;-66
2022/10/31 03:29:15;;;;;;;;;;;;;;;-142.75;100.00;77611.75;5069857;28;19916;-66
2022/10/31 03:31:46;;;;;;;;;;;;;;;-142.75;100.00;77619.63;5070070;28;20408;-66
2022/10/31 03:34:12;;;;;;;;;;;;;;;-142.75;100.00;77621.59;5070064;28;19948;-66
2022/10/31 03:36:38;;;;;;;;;;;;;;;-142.75;100.00;77639.31;5069507;28;20029;-65
2022/10/31 03:39:06;;;;;;;;;;;;;;;-142.75;100.00;77637.34;5069702;28;19920;-66
2022/10/31 03:41:34;;;;;;;;;;;;;;;-142.75;100.00;77637.34;5054662;28;19939;-67
2022/10/31 03:44:04;;;;;;;;;;;;;;;-142.75;100.00;77649.16;5052842;28;20007;-66
2022/10/31 03:46:30;;;;;;;;;;;;;;;-142.75;100.00;77660.97;5068972;28;19921;-66
2022/10/31 03:48:56;;;;;;;;;;;;;;;-142.75;100.00;77672.78;5069721;28;19916;-66
2022/10/31 03:51:21;;;;;;;;;;;;;;;-142.75;100.00;77698.38;5069851;28;19923;-65
2022/10/31 03:54:06;;;;;;;;;;;;;;;-142.75;100.00;77694.44;5069505;28;19920;-66
2022/10/31 03:56:36;;;;;;;;;;;;;;;-142.75;100.00;77684.59;5068968;28;19974;-66
2022/10/31 03:59:05;;;;;;;;;;;;;;;-142.75;100.00;77723.97;5069880;28;19925;-66
2022/10/31 04:01:31;;;;;;;;;;;;;;;-142.75;100.00;77720.03;5069828;28;19916;-66
2022/10/31 04:03:58;;;;;;;;;;;;;;;-142.75;100.00;77733.84;5069718;28;19971;-66
2022/10/31 04:06:24;;;;;;;;;;;;;;;-142.75;100.00;77763.38;5069756;28;19923;-66
2022/10/31 04:08:53;;;;;;;;;;;;;;;-142.75;100.00;77767.31;5069507;28;19923;-66
2022/10/31 04:11:21;;;;;;;;;;;;;;;-142.75;100.00;77787.00;5069798;28;19917;-66
2022/10/31 04:13:47;;;;;;;;;;;;;;;-142.75;100.00;77818.50;5051750;28;19917;-66
2022/10/31 04:16:14;;;;;;;;;;;;;;;-142.75;100.00;77826.38;5055226;28;19974;-66
2022/10/31 04:18:40;;;;;;;;;;;;;;;-142.75;100.00;77834.25;5055087;28;19916;-66
2022/10/31 04:21:06;;;;;;;;;;;;;;;-142.75;100.00;77834.25;5050957;28;19920;-66
2022/10/31 04:23:32;;;;;;;;;;;;;;;-142.75;100.00;77840.16;5068721;28;19924;-66
2022/10/31 04:25:57;;;;;;;;;;;;;;;-142.75;100.00;77842.13;5068075;28;19924;-67
2022/10/31 04:28:22;;;;;;;;;;;;;;;-142.75;100.00;77842.13;5067855;28;19916;-66
2022/10/31 04:30:48;;;;;;;;;;;;;;;-142.75;100.00;77838.19;5068298;28;19959;-66
2022/10/31 04:33:13;;;;;;;;;;;;;;;-142.75;100.00;77848.03;5068065;28;19921;-66
2022/10/31 04:35:38;;;;;;;;;;;;;;;-142.75;100.00;77824.41;5067912;28;19956;-67
2022/10/31 04:38:03;;;;;;;;;;;;;;;-142.75;100.00;77814.56;5067633;28;19943;-65
2022/10/31 04:40:28;;;;;;;;;;;;;;;-142.75;100.00;77814.56;5061860;28;19917;-66
2022/10/31 04:42:54;;;;;;;;;;;;;;;-142.75;100.00;77810.63;5048264;28;19916;-66
2022/10/31 04:45:19;;;;;;;;;;;;;;;-142.75;100.00;77802.75;5067324;28;19920;-66
2022/10/31 04:47:44;;;;;;;;;;;;;;;-142.75;100.00;77814.56;5068201;28;19917;-65
2022/10/31 04:50:09;;;;;;;;;;;;;;;-142.75;100.00;77812.59;5068606;28;19970;-66
2022/10/31 04:52:41;;;;;;;;;;;;;;;-142.75;100.00;77810.63;5053874;28;20345;-66
2022/10/31 04:55:06;;;;;;;;;;;;;;;-142.75;100.00;77832.28;5071897;28;20447;-66
2022/10/31 04:57:32;;;;;;;;;;;;;;;-142.75;100.00;77853.94;5071391;28;19916;-66
2022/10/31 04:59:57;;;;;;;;;;;;;;;-142.75;100.00;77848.03;5071902;28;19966;-65
2022/10/31 05:02:22;;;;;;;;;;;;;;;-142.75;100.00;77830.31;5053492;28;19921;-66
2022/10/31 05:04:47;;;;;;;;;;;;;;;-142.75;100.00;77834.25;5071709;28;19924;-66
2022/10/31 05:07:12;;;;;;;;;;;;;;;-142.75;100.00;77846.06;5071143;28;20311;-66
2022/10/31 05:09:38;;;;;;;;;;;;;;;-142.75;100.00;77848.03;5071461;28;20011;-66
2022/10/31 05:12:03;;;;;;;;;;;;;;;-142.75;100.00;77838.19;5058484;28;19920;-67
2022/10/31 05:14:28;;;;;;;;;;;;;;;-142.75;100.00;77832.28;5071246;28;19920;-66
2022/10/31 05:16:53;;;;;;;;;;;;;;;-142.75;100.00;77818.50;5071508;28;19986;-66
2022/10/31 05:19:19;;;;;;;;;;;;;;;-142.75;100.00;77806.69;5071167;28;19961;-66
2022/10/31 05:21:44;;;;;;;;;;;;;;;-142.75;100.00;77810.63;5072065;28;19940;-66
2022/10/31 05:24:09;;;;;;;;;;;;;;;-142.75;100.00;77802.75;5073855;28;19917;-66
2022/10/31 05:26:34;;;;;;;;;;;;;;;-142.75;100.00;77788.97;5073560;28;19923;-66
2022/10/31 05:28:59;;;;;;;;;;;;;;;-142.75;100.00;77785.03;5073796;28;19939;-66
2022/10/31 05:31:24;;;;;;;;;;;;;;;-142.75;100.00;77787.00;5073878;28;19917;-65
2022/10/31 05:33:50;;;;;;;;;;;;;;;-142.75;100.00;77792.91;5073092;28;19917;-66
2022/10/31 05:36:15;;;;;;;;;;;;;;;-142.75;100.00;77777.16;5054837;28;20023;-66
2022/10/31 05:38:40;;;;;;;;;;;;;;;-142.75;100.00;77775.19;5073323;28;19917;-66
2022/10/31 05:41:05;;;;;;;;;;;;;;;-142.75;100.00;77779.13;5055715;28;19951;-65
2022/10/31 05:43:30;;;;;;;;;;;;;;;-142.75;100.00;77775.19;5064769;28;20011;-66
2022/10/31 05:45:56;;;;;;;;;;;;;;;-142.75;100.00;77769.28;5082481;23;19958;-66
2022/10/31 05:48:22;;;;;;;;;;;;;;;-142.75;100.00;77767.31;5076825;28;19986;-66
2022/10/31 05:50:47;;;;;;;;;;;;;;;-142.75;100.00;77767.31;5073050;28;19917;-67
2022/10/31 05:53:12;;;;;;;;;;;;;;;-142.75;100.00;77769.28;5091710;28;20366;-66
2022/10/31 05:55:39;;;;;;;;;;;;;;;-142.75;100.00;77779.13;5093332;28;19920;-66
2022/10/31 05:58:04;;;;;;;;;;;;;;;-142.75;100.00;77775.19;5093233;28;19916;-67
2022/10/31 06:00:29;;;;;;;;;;;;;;;-142.75;100.00;77787.00;5093422;28;19940;-66
2022/10/31 06:03:02;;;;;;;;;;;;;;;-142.75;100.00;77779.13;5092017;28;19942;-66
2022/10/31 06:05:27;;;;;;;;;;;;;;;-142.75;100.00;77765.34;5093226;28;19916;-66
2022/10/31 06:07:52;;;;;;;;;;;;;;;-142.75;100.00;77765.34;5092972;28;19923;-66
2022/10/31 06:10:19;;;;;;;;;;;;;;;-142.75;100.00;77767.31;5093323;28;20060;-66
2022/10/31 06:12:44;;;;;;;;;;;;;;;-142.75;100.00;77763.38;5093242;28;19926;-68
2022/10/31 06:15:09;;;;;;;;;;;;;;;-142.75;100.00;77773.22;5093036;28;19924;-68
2022/10/31 06:17:35;;;;;;;;;;;;;;;-142.75;100.00;77779.13;5092784;28;19916;-68
2022/10/31 06:20:00;;;;;;;;;;;;;;;-142.75;100.00;77783.06;5092984;28;20024;-68
2022/10/31 06:22:25;;;;;;;;;;;;;;;-142.75;100.00;77787.00;5093079;28;20011;-68
2022/10/31 06:24:51;;;;;;;;;;;;;;;-142.75;100.00;77802.75;5092858;28;19916;-68
2022/10/31 06:27:16;;;;;;;;;;;;;;;-142.75;100.00;77792.91;5092644;28;20289;-69
2022/10/31 06:29:41;;;;;;;;;;;;;;;-142.75;100.00;77812.59;5092802;28;20581;-67
2022/10/31 06:32:09;;;;;;;;;;;;;;;-142.75;100.00;77810.63;5092812;28;19916;-67
2022/10/31 06:34:34;;;;;;;;;;;;;;;-142.75;100.00;77822.44;5092403;28;19926;-68
2022/10/31 06:36:59;;;;;;;;;;;;;;;-142.75;100.00;77832.28;5092510;28;19926;-68
2022/10/31 06:39:25;;;;;;;;;;;;;;;-142.75;100.00;77846.06;5073274;28;20440;-68
2022/10/31 06:41:50;;;;;;;;;;;;;;;-142.75;100.00;77857.88;5072407;28;19916;-68
2022/10/31 06:44:15;;;;;;;;;;;;;;;-142.75;100.00;77861.81;5072414;28;19924;-68
2022/10/31 06:46:40;;;;;;;;;;;;;;;-142.75;100.00;77873.63;5071821;28;19955;-68
2022/10/31 06:49:05;;;;;;;;;;;;;;;-142.75;100.00;77869.69;5072109;28;20400;-68
2022/10/31 06:51:31;;;;;;;;;;;;;;;-142.75;100.00;77865.75;5072217;28;20610;-68
2022/10/31 06:53:56;;;;;;;;;;;;;;;-142.75;100.00;77848.03;5072130;28;19917;-68
2022/10/31 06:56:21;;;;;;;;;;;;;;;-142.75;100.00;77840.16;5071957;28;20321;-68
2022/10/31 06:58:46;;;;;;;;;;;;;;;-142.75;100.00;77836.22;5071762;28;19924;-68
2022/10/31 07:01:11;;;;;;;;;;;;;;;-142.75;100.00;77838.19;5072084;28;19930;-68
2022/10/31 07:03:36;;;;;;;;;;;;;;;-142.75;100.00;77848.03;5071846;28;20005;-68
2022/10/31 07:06:02;;;;;;;;;;;;;;;-142.75;100.00;77865.75;5071295;28;19917;-67
2022/10/31 07:08:27;;;;;;;;;;;;;;;-142.75;100.00;77853.94;5069492;28;20301;-67
2022/10/31 07:10:55;;;;;;;;;;;;;;;-142.75;100.00;77861.81;5070183;28;20301;-67
2022/10/31 07:13:25;;;;;;;;;;;;;;;-142.75;100.00;77848.03;5069970;28;19924;-66
2022/10/31 07:15:51;;;;;;;;;;;;;;;-142.75;100.00;77850.00;5070772;28;19924;-67
2022/10/31 07:18:16;;;;;;;;;;;;;;;-142.75;100.00;77828.34;5065897;28;19920;-67
2022/10/31 07:20:41;;;;;;;;;;;;;;;-142.75;100.00;77820.47;5065035;28;19981;-67
2022/10/31 07:23:07;;;;;;;;;;;;;;;-142.75;100.00;77814.56;5063557;28;19959;-67
2022/10/31 07:25:32;;;;;;;;;;;;;;;-142.75;100.00;77806.69;5067860;28;19917;-67
2022/10/31 07:27:57;;;;;;;;;;;;;;;-142.75;100.00;77802.75;5067479;28;20015;-68
2022/10/31 07:30:23;;;;;;;;;;;;;;;-142.75;100.00;77798.81;5075309;28;19916;-67
2022/10/31 07:32:49;;;;;;;;;;;;;;;-142.75;100.00;77790.94;5063464;28;19952;-68
2022/10/31 07:35:16;;;;;;;;;;;;;;;-142.75;100.00;77787.00;5065519;28;20007;-68
2022/10/31 07:37:41;;;;;;;;;;;;;;;-142.75;100.00;77794.88;5068179;28;19925;-68
2022/10/31 07:40:07;;;;;;;;;;;;;;;-142.75;100.00;77788.97;5065621;28;20019;-68
2022/10/31 07:42:37;;;;;;;;;;;;;;;-142.75;100.00;77790.94;5071950;28;19925;-68
2022/10/31 07:45:02;;;;;;;;;;;;;;;-142.75;100.00;77790.94;5074801;28;20298;-68
2022/10/31 07:47:27;;;;;;;;;;;;;;;-142.75;100.00;77775.19;5069245;28;19916;-68
2022/10/31 07:49:53;;;;;;;;;;;;;;;-142.75;100.00;77785.03;5080418;28;19916;-67
2022/10/31 07:52:18;;;;;;;;;;;;;;;-142.75;100.00;77779.13;5072735;28;19917;-65
2022/10/31 07:54:43;;;;;;;;;;;;;;;-142.75;100.00;77787.00;5081358;28;19936;-65
2022/10/31 07:57:08;;;;;;;;;;;;;;;-142.75;100.00;77788.97;5077400;28;19924;-66
2022/10/31 07:59:34;;;;;;;;;;;;;;;-142.75;100.00;77794.88;5080643;28;20301;-65
2022/10/31 08:01:59;;;;;;;;;;;;;;;-142.75;100.00;77785.03;5080866;28;19997;-65
2022/10/31 08:04:24;;;;;;;;;;;;;;;-142.75;100.00;77787.00;5074248;28;19916;-65
2022/10/31 08:06:49;;;;;;;;;;;;;;;-142.75;100.00;77792.91;5079166;28;20385;-65
2022/10/31 08:09:14;;;;;;;;;;;;;;;-142.75;100.00;77787.00;5074671;28;19931;-65
2022/10/31 08:11:39;;;;;;;;;;;;;;;-142.75;100.00;77787.00;5081756;28;19973;-65
2022/10/31 08:14:05;;;;;;;;;;;;;;;-142.75;100.00;77775.19;5080789;28;19917;-66
2022/10/31 08:16:30;;;;;;;;;;;;;;;-142.75;100.00;77775.19;5072587;28;20399;-66
2022/10/31 08:18:55;;;;;;;;;;;;;;;-142.75;100.00;77771.25;5081600;28;19934;-66
2022/10/31 08:21:21;;;;;;;;;;;;;;;-142.75;100.00;77771.25;5091177;28;19963;-66
2022/10/31 08:24:56;;;;;;;16.85;9.25;;;;;;;-142.75;100.00;77769.28;5108574;27;20354;-65
2022/10/31 08:27:22;;;;;;;27.50;11.02;;;;;;;-142.75;100.00;77771.25;5108198;28;20030;-65
2022/10/31 08:29:47;;;;;;;26.58;12.02;;;;;;;-142.75;100.00;77755.50;5108268;28;20019;-66
2022/10/31 08:32:13;;;;;;;20.52;12.18;;;;;;;-142.75;100.00;77743.69;5108517;28;20081;-66
2022/10/31 08:34:38;;;;;;;26.10;13.18;;;;;;;-142.75;100.00;77751.56;5108106;28;20024;-65
2022/10/31 08:37:04;;;;;;;21.63;13.10;;;;;;;-142.75;100.00;77737.78;5107464;28;20077;-68
2022/10/31 08:39:29;;;;;;;27.50;13.00;;;;;;;-142.75;100.00;77731.88;5108144;28;20020;-66
2022/10/31 08:41:54;;;;;;;35.30;13.20;;;;;;;-142.75;100.00;77723.97;5108392;28;20032;-67
2022/10/31 08:44:19;;;;;;;24.27;13.90;;;;;;;-142.75;100.00;77718.06;5115195;28;20019;-68
2022/10/31 08:46:45;;;;;;;28.83;14.15;;;;;;;-142.75;100.00;77708.22;5128265;28;20114;-68
2022/10/31 08:49:10;;;;;;;23.92;13.50;;;;;;;-142.75;100.00;77686.56;5119105;27;20031;-68
2022/10/31 08:51:35;;;;;;;32.85;16.40;;;;;;;-142.75;100.00;77649.16;5106887;28;20020;-68
2022/10/31 08:54:01;;;;;;;29.23;15.93;;;;;;;-142.75;100.00;77603.88;5102226;28;20026;-68
2022/10/31 08:56:26;;;;;;;27.98;15.20;;;;;;;-142.75;100.00;77568.44;5099635;28;20278;-68
2022/10/31 08:58:53;;;;;;;29.73;15.07;;;;;;;-142.75;100.00;77536.94;5106172;28;20035;-67
2022/10/31 09:01:18;;;;;;;28.73;15.02;;;;;;;-142.75;100.00;77515.28;5107533;28;21615;-68
2022/10/31 09:03:44;;;;;;;25.20;14.52;;;;;;;-142.75;100.00;77487.72;5107289;28;20024;-68
2022/10/31 09:06:09;;;;;;;27.40;15.75;;;;;;;-142.75;100.00;77477.88;5107449;28;20035;-67
2022/10/31 09:08:35;;;;;;;26.27;15.13;;;;;;;-142.75;100.00;77434.53;5107353;28;20024;-68
2022/10/31 09:11:02;;;;;;;23.92;14.52;;;;;;;-142.75;100.00;77418.78;5107760;28;20470;-68
2022/10/31 09:13:27;;;;;;;26.95;13.68;;;;;;;-142.75;100.00;77397.13;5107640;28;20034;-68
2022/10/31 09:15:52;;;;;;;22.30;13.25;;;;;;;-142.75;100.00;77383.34;5107605;28;20027;-68
2022/10/31 09:18:21;;;;;;;24.73;12.60;;;;;;;-142.75;100.00;77373.50;5107285;28;20042;-68
2022/10/31 09:20:48;;;;;;;21.95;12.73;;;;;;;-142.75;100.00;77379.41;5107624;28;20028;-68
2022/10/31 09:23:15;;;;;;;25.33;13.02;;;;;;;-142.75;100.00;77363.66;5107339;28;20016;-67
2022/10/31 09:25:41;;;;;;;20.50;12.68;;;;;;;-142.75;100.00;77342.00;5107372;28;20513;-66
2022/10/31 09:28:09;;;;;;;23.25;12.43;;;;;;;-142.75;100.00;77322.31;5107230;28;20047;-66
2022/10/31 09:30:35;;;;;;;20.73;12.70;;;;;;;-142.75;100.00;77302.63;5106911;28;20027;-64
2022/10/31 09:33:04;;;;;;;23.98;12.73;;;;;;;-142.75;100.00;77292.78;5107384;28;20092;-67
2022/10/31 09:35:29;;;;;;;23.48;14.02;;;;;;;-142.75;100.00;77290.81;5097777;28;20066;-67
2022/10/31 09:38:00;;;;;;;31.65;13.70;;;;;;;-142.75;100.00;77282.94;5092730;28;20494;-65
2022/10/31 09:40:34;;;;;;;27.25;13.60;;;;;;;-142.75;100.00;77265.22;5092979;28;20020;-65
2022/10/31 09:43:36;;;;;;;22.48;12.65;;;;;;;-142.75;100.00;77261.28;5093363;28;20012;-64
2022/10/31 09:46:16;;;;;;;19.42;11.20;;;;;;;-142.75;100.00;77275.06;5093264;28;20036;-65
2022/10/31 09:49:03;;;;;;;21.08;12.10;;;;;;;-142.75;100.00;77273.09;5093031;28;20105;-65
2022/10/31 09:51:36;;;;;;;21.90;11.80;;;;;;;-142.75;100.00;77282.94;5093427;28;20037;-65
2022/10/31 09:54:12;;;;;;;27.70;12.20;;;;;;;-142.75;100.00;77277.03;5092823;28;20024;-65
2022/10/31 09:56:37;;;;;;;19.95;10.80;;;;;;;-142.75;100.00;77265.22;5092859;28;20077;-65
2022/10/31 09:59:04;;;;;;;;;;;;;;;-142.75;100.00;77259.31;5092184;28;20512;-66
2022/10/31 10:01:54;;;;;;;22.67;11.77;;;;;;;-142.75;100.00;77255.38;5092429;28;20003;-66
2022/10/31 10:04:51;;;;;;;23.85;13.27;;;;;;;-142.75;100.00;77245.53;5092799;28;20035;-66
2022/10/31 10:07:28;;;;;;;23.40;12.68;;;;;;;-142.75;100.00;77241.59;5092811;28;20028;-66
2022/10/31 10:09:53;;;;;;;26.05;14.50;;;;;;;-142.75;100.00;77229.78;5093085;28;20020;-67
2022/10/31 10:12:38;;;;;;;29.77;14.85;;;;;;;-142.75;100.00;77206.16;5091783;28;20076;-66
2022/10/31 10:15:17;;;;;;;24.55;14.25;;;;;;;-142.75;100.00;77188.44;5092836;28;20386;-67
2022/10/31 10:18:00;;;;;;;25.10;13.48;;;;;;;-142.75;100.00;77174.66;5092648;28;20024;-66
2022/10/31 10:21:00;;;;;;;25.27;14.30;;;;;;;-142.75;100.00;77154.97;5092224;28;20443;-66
2022/10/31 10:23:40;;;;;;;22.40;13.20;;;;;;;-142.75;100.00;77156.94;5091136;28;20024;-67
2022/10/31 10:26:12;;;;;;;26.65;12.82;;;;;;;-142.75;100.00;77149.06;5092735;28;20111;-66
2022/10/31 10:28:41;;;;;;;29.92;14.25;;;;;;;-142.75;100.00;77086.06;5092374;28;20032;-66
2022/10/31 10:31:12;;;;;;;21.75;12.52;;;;;;;-142.75;100.00;77013.22;5092730;28;20047;-66
2022/10/31 10:33:44;;;;;;;25.83;12.88;;;;;;;-142.75;100.00;76973.84;5092712;28;20044;-66
2022/10/31 10:36:21;;;;;;;25.45;13.13;;;;;;;-142.75;100.00;76916.75;5092421;28;20408;-66
2022/10/31 10:38:58;;;;;;;19.50;10.68;;;;;;;-142.75;100.00;76838.00;5092248;28;20497;-66
2022/10/31 10:41:28;;;;;;;20.58;10.45;;;;;;;-142.75;100.00;76810.44;5092456;28;20035;-66
2022/10/31 10:43:56;;;;;;;18.13;9.95;;;;;;;-142.75;100.00;76849.81;5092369;28;20024;-67
2022/10/31 10:49:36;;;;;;;22.75;11.93;;;;;;;-142.75;100.00;76940.38;5092611;28;20042;-66
2022/10/31 10:52:10;;;;;;;18.13;10.45;;;;;;;-142.75;100.00;76960.06;5092203;28;20062;-67
2022/10/31 10:54:41;;;;;;;22.17;12.18;;;;;;;-142.75;100.00;76971.88;5092067;28;20100;-67
2022/10/31 10:57:44;;;;;;;27.42;12.85;;;;;;;-142.75;100.00;76979.75;5091691;28;20028;-66
2022/10/31 11:00:29;;;;;;;21.17;12.30;;;;;;;-142.75;100.00;76987.63;5092094;28;20023;-66
2022/10/31 11:02:55;;;;;;;20.85;11.63;;;;;;;-142.75;100.00;77013.22;5092038;28;20102;-67
2022/10/31 11:05:23;;;;;;;;;;;;;;;-142.75;100.00;77034.88;5092162;28;20028;-66
2022/10/31 11:07:49;;;;;;;30.75;12.63;;;;;;;-142.75;100.00;77050.63;5090092;28;19985;-67
2022/10/31 11:10:15;;;;;;;28.92;11.60;;;;;;;-142.75;100.00;77048.66;5091910;28;20568;-66
2022/10/31 11:12:44;;;;;;;19.65;11.68;;;;;;;-142.75;100.00;77050.63;5091748;28;20032;-66
2022/10/31 11:15:23;;;;;;;19.77;11.45;;;;;;;-142.75;100.00;77060.47;5091751;28;20111;-66
2022/10/31 11:17:51;;;;;;;23.90;12.88;;;;;;;-142.75;100.00;77072.28;5091416;28;20031;-66
2022/10/31 11:20:17;;;;;;;20.65;12.10;;;;;;;-142.75;100.00;77072.28;5104832;28;20019;-66
2022/10/31 11:22:44;;;;;;;19.73;11.73;;;;;;;-142.75;100.00;77052.59;5111900;28;20496;-66
2022/10/31 11:25:19;;;;;;;27.40;12.18;;;;;;;-142.75;100.00;77040.78;5111942;28;20027;-66
2022/10/31 11:27:45;;;;;;;22.70;11.50;;;;;;;-142.75;100.00;77050.63;5111651;28;20033;-67
2022/10/31 11:30:13;;;;;;;23.95;10.85;;;;;;;-142.75;100.00;77036.84;5111800;28;20023;-66
2022/10/31 11:32:52;;;;;;;18.80;11.63;;;;;;;-142.75;100.00;77034.88;5112325;28;20020;-67
2022/10/31 11:35:19;;;;;;;20.50;11.20;;;;;;;-142.75;100.00;77038.81;5111836;28;20035;-66
2022/10/31 11:37:48;;;;;;;23.95;12.00;;;;;;;-142.75;100.00;77007.31;5111434;28;20019;-67
2022/10/31 11:40:22;;;;;;;24.23;12.80;;;;;;;-142.75;100.00;76999.44;5111503;28;20047;-66
2022/10/31 11:42:50;;;;;;;27.10;12.00;;;;;;;-142.75;100.00;76985.66;5109476;28;20394;-66
2022/10/31 11:45:33;;;;;;;23.35;11.73;;;;;;;-142.75;100.00;76979.75;5110045;22;20047;-69
2022/10/31 11:48:00;;;;;;;24.60;13.30;;;;;;;-142.75;100.00;76967.94;5068197;28;20025;-67
2022/10/31 11:50:29;;;;;;;28.92;13.60;;;;;;;-142.75;100.00;76975.81;5070253;28;20046;-70
2022/10/31 11:52:55;;;;;;;22.63;12.75;;;;;;;-142.75;100.00;76964.00;5070911;28;20026;-68
2022/10/31 11:55:37;;;;;;;25.85;13.05;;;;;;;-142.75;100.00;76960.06;5051988;28;20136;-69
2022/10/31 11:58:03;;;;;;;25.42;12.50;;;;;;;-142.75;100.00;76948.25;5068968;28;20055;-69
2022/10/31 12:00:36;;;;;;;24.60;13.05;;;;;;;-142.75;100.00;76938.41;5070467;28;20025;-69